createdAt,value
2023-01-18T00:00:05.577Z,7.20
2023-01-18T00:05:08.932Z,7.57
2023-01-18T00:10:13.213Z,7.50
2023-01-18T00:15:16.195Z,7.27
2023-01-18T00:20:20.436Z,7.73
2023-01-18T00:25:25.579Z,6.33
2023-01-18T00:30:29.594Z,7.30
2023-01-18T00:35:32.373Z,8.07
2023-01-18T00:40:36.384Z,7.00
2023-01-18T00:45:40.925Z,6.53
2023-01-18T00:50:43.635Z,6.83
2023-01-18T00:55:47.991Z,7.67
2023-01-18T01:00:53.621Z,6.20
2023-01-18T01:06:15.676Z,5.70
2023-01-18T01:11:19.793Z,5.73
2023-01-18T01:16:41.094Z,6.50
2023-01-18T01:22:06.431Z,6.53
2023-01-18T01:27:11.221Z,5.37
2023-01-18T01:32:14.045Z,5.97
2023-01-18T01:37:16.697Z,6.13
2023-01-18T01:42:23.636Z,7.30
2023-01-18T01:47:38.534Z,7.07
2023-01-18T01:52:44.934Z,5.80
2023-01-18T01:57:52.620Z,6.63
2023-01-18T02:02:59.793Z,5.73
2023-01-18T02:08:04.088Z,6.40
2023-01-18T02:13:10.986Z,6.30
2023-01-18T02:18:25.890Z,6.23
2023-01-18T02:24:17.828Z,6.67
2023-01-18T02:29:31.227Z,5.77
2023-01-18T02:34:41.069Z,5.70
2023-01-18T02:39:56.608Z,6.30
2023-01-18T02:45:21.105Z,6.90
2023-01-18T02:50:25.312Z,6.03
2023-01-18T02:55:45.752Z,6.40
2023-01-18T03:00:55.265Z,5.70
2023-01-18T03:06:01.905Z,6.67
2023-01-18T03:11:11.545Z,6.47
2023-01-18T03:16:22.659Z,6.67
2023-01-18T03:21:29.286Z,6.60
2023-01-18T03:26:42.913Z,6.30
2023-01-18T03:32:07.946Z,6.17
2023-01-18T03:37:15.190Z,6.17
2023-01-18T03:42:21.423Z,7.00
2023-01-18T03:47:26.766Z,7.13
2023-01-18T03:52:37.556Z,7.20
2023-01-18T03:57:45.435Z,6.70
2023-01-18T04:02:51.063Z,6.70
2023-01-18T04:08:42.974Z,7.97
2023-01-18T04:14:20.761Z,7.33
2023-01-18T04:33:07.056Z,7.07
2023-01-18T04:38:59.534Z,7.00
2023-01-18T04:45:44.857Z,7.30
2023-01-18T04:51:26.688Z,8.50
2023-01-18T05:03:21.236Z,7.67
2023-01-18T05:09:34.089Z,7.83
2023-01-18T05:46:05.946Z,10.47
2023-01-18T06:04:49.720Z,11.80
2023-01-18T06:21:46.996Z,11.73
2023-01-18T06:27:15.562Z,12.17
2023-01-18T06:57:42.092Z,10.90
2023-01-18T07:03:13.016Z,10.80
2023-01-18T07:09:03.936Z,10.43
2023-01-18T07:14:34.040Z,10.20
2023-01-18T07:20:14.642Z,10.73
2023-01-18T07:25:30.906Z,10.83
2023-01-18T07:30:59.791Z,10.17
2023-01-18T07:36:20.866Z,10.43
2023-01-18T07:47:30.451Z,9.83
2023-01-18T07:52:49.045Z,9.87
2023-01-18T07:57:55.211Z,8.57
2023-01-18T08:02:59.682Z,9.63
2023-01-18T08:08:02.452Z,9.73
2023-01-18T08:13:05.974Z,10.03
2023-01-18T08:18:09.992Z,10.97
2023-01-18T08:23:12.993Z,10.80
2023-01-18T08:28:16.035Z,10.27
2023-01-18T08:35:16.268Z,10.50
2023-01-18T08:40:55.751Z,13.40
2023-01-18T08:46:53.102Z,10.13
2023-01-18T08:52:16.637Z,12.73
2023-01-18T08:57:40.495Z,10.47
2023-01-18T09:03:12.006Z,10.87
2023-01-18T09:19:56.104Z,10.90
2023-01-18T09:25:41.919Z,10.83
2023-01-18T09:30:45.109Z,10.87
2023-01-18T09:35:57.201Z,11.40
2023-01-18T09:41:53.508Z,11.47
2023-01-18T09:47:09.290Z,11.80
2023-01-18T09:52:57.739Z,11.43
2023-01-18T10:05:16.530Z,11.37
2023-01-18T10:17:16.687Z,11.93
2023-01-18T10:22:58.283Z,11.10
2023-01-18T10:34:18.553Z,10.53
2023-01-18T10:45:11.953Z,10.00
2023-01-18T10:56:14.447Z,9.67
2023-01-18T11:01:26.576Z,9.87
2023-01-18T11:07:24.634Z,10.20
2023-01-18T11:13:03.450Z,10.30
2023-01-18T11:18:31.541Z,11.23
2023-01-18T11:24:33.552Z,11.63
2023-01-18T11:30:08.272Z,10.87
2023-01-18T11:35:54.535Z,10.83
2023-01-18T11:48:02.218Z,12.03
2023-01-18T12:12:18.428Z,13.50
2023-01-18T12:18:16.044Z,13.33
2023-01-18T12:30:52.883Z,13.30
2023-01-18T12:43:04.461Z,13.47
2023-01-18T13:37:36.886Z,14.30
2023-01-18T13:50:06.525Z,13.77
2023-01-18T14:01:55.249Z,14.27
2023-01-18T14:07:00.801Z,14.30
2023-01-18T14:12:04.747Z,14.53
2023-01-18T14:17:17.006Z,15.03
2023-01-18T14:22:34.862Z,15.00
2023-01-18T14:28:14.497Z,14.43
2023-01-18T14:39:41.614Z,13.97
2023-01-18T14:45:04.890Z,13.47
2023-01-18T14:50:16.524Z,13.50
2023-01-18T14:55:45.924Z,13.33
2023-01-18T15:00:56.372Z,13.20
2023-01-18T15:06:13.333Z,12.63
2023-01-18T15:11:29.603Z,12.37
2023-01-18T15:17:12.215Z,12.20
2023-01-18T15:22:41.901Z,11.00
2023-01-18T15:27:50.486Z,10.90
2023-01-18T15:33:12.819Z,11.43
2023-01-18T15:38:29.570Z,9.37
2023-01-18T15:43:35.532Z,9.90
2023-01-18T15:48:47.305Z,9.27
2023-01-18T15:53:56.136Z,11.10
2023-01-18T15:59:01.729Z,10.60
2023-01-18T16:04:39.978Z,11.40
2023-01-18T16:09:43.989Z,10.90
2023-01-18T16:14:53.927Z,11.73
2023-01-18T16:19:58.596Z,11.63
2023-01-18T16:25:08.909Z,11.77
2023-01-18T16:30:23.233Z,11.97
2023-01-18T16:35:26.680Z,10.87
2023-01-18T16:40:30.766Z,11.43
2023-01-18T16:45:36.218Z,12.20
2023-01-18T16:50:39.353Z,12.47
2023-01-18T16:55:44.569Z,12.57
2023-01-18T17:00:53.034Z,12.03
2023-01-18T17:05:56.264Z,11.63
2023-01-18T17:11:01.256Z,10.93
2023-01-18T17:16:03.981Z,10.47
2023-01-18T17:21:06.945Z,8.67
2023-01-18T17:26:15.005Z,9.03
2023-01-18T17:31:17.681Z,8.83
2023-01-18T17:36:20.391Z,8.87
2023-01-18T17:41:28.723Z,9.57
2023-01-18T17:46:32.812Z,7.30
2023-01-18T17:51:45.979Z,6.53
2023-01-18T17:56:50.024Z,6.43
2023-01-18T18:02:01.304Z,7.33
2023-01-18T18:07:07.289Z,6.43
2023-01-18T18:12:12.638Z,8.23
2023-01-18T18:17:18.499Z,9.03
2023-01-18T18:22:21.513Z,9.53
2023-01-18T18:27:37.335Z,11.80
2023-01-18T18:32:46.894Z,9.03
2023-01-18T18:37:49.730Z,8.20
2023-01-18T18:43:01.857Z,7.43
2023-01-18T18:48:06.265Z,6.93
2023-01-18T18:53:09.265Z,6.67
2023-01-18T18:58:13.730Z,5.23
2023-01-18T19:03:16.454Z,5.17
2023-01-18T19:08:19.410Z,5.60
2023-01-18T19:13:23.422Z,6.17
2023-01-18T19:18:26.124Z,5.70
2023-01-18T19:23:29.034Z,5.50
2023-01-18T19:28:33.014Z,4.73
2023-01-18T19:33:36.719Z,4.43
2023-01-18T19:38:45.667Z,4.73
2023-01-18T19:43:50.970Z,4.50
2023-01-18T19:48:57.562Z,5.10
2023-01-18T19:54:00.327Z,5.50
2023-01-18T19:59:04.585Z,5.37
2023-01-18T20:04:08.351Z,5.70
2023-01-18T20:09:20.301Z,6.13
2023-01-18T20:14:36.650Z,5.80
2023-01-18T20:19:44.246Z,5.30
2023-01-18T20:24:49.820Z,6.27
2023-01-18T20:29:55.189Z,6.27
2023-01-18T20:34:58.023Z,6.77
2023-01-18T20:40:00.975Z,7.23
2023-01-18T20:45:05.620Z,7.83
2023-01-18T20:50:09.734Z,7.90
2023-01-18T20:55:14.658Z,7.90
2023-01-18T21:00:21.184Z,7.70
2023-01-18T21:05:25.311Z,7.07
2023-01-18T21:10:38.486Z,8.77
2023-01-18T21:15:45.711Z,7.77
2023-01-18T21:20:52.706Z,8.27
2023-01-18T21:25:58.399Z,7.60
2023-01-18T21:31:03.977Z,7.03
2023-01-18T21:36:09.117Z,7.60
2023-01-18T21:41:30.168Z,7.83
2023-01-18T21:46:34.466Z,7.47
2023-01-18T21:52:03.140Z,8.57
2023-01-18T21:57:08.589Z,8.93
2023-01-18T22:02:12.713Z,10.00
2023-01-18T22:07:18.286Z,11.07
2023-01-18T22:12:21.302Z,9.20
2023-01-18T22:18:09.363Z,9.63
2023-01-18T22:23:20.406Z,10.90
2023-01-18T22:28:26.063Z,9.27
2023-01-18T22:33:48.113Z,9.97
2023-01-18T22:38:51.024Z,9.10
2023-01-18T22:43:55.063Z,11.67
2023-01-18T22:48:59.524Z,12.27
2023-01-18T22:54:02.166Z,12.67
2023-01-18T22:59:04.787Z,12.73
2023-01-18T23:04:09.250Z,11.93
2023-01-18T23:09:12.669Z,12.03
2023-01-18T23:14:33.371Z,11.63
2023-01-18T23:19:37.670Z,12.00
2023-01-18T23:24:40.779Z,12.33
2023-01-18T23:29:43.435Z,12.10
2023-01-18T23:34:47.749Z,12.63
2023-01-18T23:40:08.201Z,13.63
2023-01-18T23:45:29.134Z,11.80
2023-01-18T23:50:51.227Z,13.93
2023-01-18T23:55:54.215Z,11.73
